Terminal Aerodrome Forecast
Issued by NWS St Louis, MO

Home | Current Version | Previous Version | Graphics & Text | Print | Product List | Glossary On
Versions: 1 2 3 4 5 6 7 8 9 10 11 12 13 14 15 16 17 18 19 20 21 22 23 24 25 26
000
FTUS43 KLSX 250851 AAB
TAFSTL
TAF AMD
KSTL 250851Z 2509/2612 29020G30KT P6SM -SN OVC035
     FM251400 30015G24KT P6SM SCT050
     FM260000 30007KT P6SM FEW250
     FM260300 VRB03KT P6SM SKC=

USA.gov is the U.S. government's official web portal to all federal, state and local government web resources and services.